Mr. Junius — WDD7695 — position and weather

sailwx.info

Track history (hours):
 
Tides and Currents Weather Stations Pressure Air Temp Water Temp Dewpoint Dewpoint Depression Visibility Wind Speed Wind Dir Waves Ship Positions

Mr. Junius

Owner: Boh Bros. Construction Co., LLC, New Orleans, LA. More information available from US FCC via Universal Licensing System and Coast Guard Vessel Documentation Center.

Last reported at 2018-May-18 06:58 UTC. Time now 2018-May-25 04:58 UTC.
Position N 27°52' W 097°03'.

Length 18 m; draft 1.7 m.

Type: Tug. MMSI: 367189940.

Date/timePositionNaut miles runAvg speedWind from/ knotsBaromVisibWave heightAir tempDewpointWater temp
2018-May-18 06:58N 27°52' W 097°03'0 0.0
2018-May-18 06:28N 27°52' W 097°03'0 0.0
2018-May-18 06:00N 27°52' W 097°03'0 0.0
2018-May-18 05:04N 27°52' W 097°03'0 0.0
2018-May-18 05:00N 27°52' W 097°03'0 0.0
2018-May-18 04:29N 27°52' W 097°03'0 0.0
2018-May-18 03:57N 27°52' W 097°03'0 0.3
2018-May-18 03:30N 27°52' W 097°03'1 1.4
2018-May-18 03:00N 27°53' W 097°03'0 0.0
2018-May-18 02:27N 27°53' W 097°03'0 0.2
2018-May-18 01:59N 27°53' W 097°03'0 0.2
2018-May-18 01:30N 27°53' W 097°03'0 0.0
2018-May-18 01:00N 27°53' W 097°03'0 0.0
2018-May-18 00:29N 27°53' W 097°03'0 0.0
2018-May-17 22:52N 27°53' W 097°03'0 0.0
2018-May-17 05:16N 27°53' W 097°03'0 0.0
2018-May-17 02:19N 27°53' W 097°03'0 0.0
2018-May-17 01:53N 27°53' W 097°03'0 0.0
2018-May-17 01:21N 27°53' W 097°03'0 0.0
2018-May-17 01:00N 27°53' W 097°03'0 0.0
2018-May-16 21:16N 27°53' W 097°03'7 0.8
2018-May-16 13:07N 27°59' W 097°05'0 0.0
2018-May-16 13:00N 27°59' W 097°05'0 0.0
2018-May-16 12:04N 27°59' W 097°05'0 0.0
2018-May-16 11:49N 27°59' W 097°05'0 0.0
2018-May-16 11:30N 27°59' W 097°05'0 0.0
2018-May-16 11:00N 27°59' W 097°05'0 0.0
2018-May-16 10:30N 27°59' W 097°05'0 0.0
2018-May-16 10:00N 27°59' W 097°05'1 1.9
2018-May-16 09:27N 27°60' W 097°04'7 1.7
2018-May-16 05:32N 27°53' W 097°03'0 0.0
2018-May-16 05:30N 27°53' W 097°03'  
2018-May-10 06:05N 27°52' W 097°03'0 0.1
2018-May-10 05:59N 27°52' W 097°03'0 0.0
2018-May-09 04:04N 27°53' W 097°03'0 0.0
2018-May-08 09:28N 27°53' W 097°03'0 0.0
2018-May-08 09:01N 27°53' W 097°03'0 0.0
2018-May-08 08:28N 27°53' W 097°03'0 0.0
2018-May-08 07:59N 27°53' W 097°03'0 0.6
2018-May-08 07:26N 27°53' W 097°03'0 0.0
2018-May-08 07:00N 27°53' W 097°03'  
Track history (hours):
 
Tides and Currents Weather Stations Pressure Air Temp Water Temp Dewpoint Dewpoint Depression Visibility Wind Speed Wind Dir Waves Ship Positions

Mr. Junius

Owner: Boh Bros. Construction Co., LLC, New Orleans, LA. More information available from US FCC via Universal Licensing System and Coast Guard Vessel Documentation Center.

Last reported at 2018-May-18 06:58 UTC. Time now 2018-May-25 04:58 UTC.
Position N 27°52' W 097°03'.

Length 18 m; draft 1.7 m.

Type: Tug. MMSI: 367189940.

Date/timePositionNaut miles runAvg speedWind from/ knotsBaromVisibWave heightAir tempDewpointWater temp
2018-May-18 06:58N 27°52' W 097°03'0 0.0
2018-May-18 06:28N 27°52' W 097°03'0 0.0
2018-May-18 06:00N 27°52' W 097°03'0 0.0
2018-May-18 05:04N 27°52' W 097°03'0 0.0
2018-May-18 05:00N 27°52' W 097°03'0 0.0
2018-May-18 04:29N 27°52' W 097°03'0 0.0
2018-May-18 03:57N 27°52' W 097°03'0 0.3
2018-May-18 03:30N 27°52' W 097°03'1 1.4
2018-May-18 03:00N 27°53' W 097°03'0 0.0
2018-May-18 02:27N 27°53' W 097°03'0 0.2
2018-May-18 01:59N 27°53' W 097°03'0 0.2
2018-May-18 01:30N 27°53' W 097°03'0 0.0
2018-May-18 01:00N 27°53' W 097°03'0 0.0
2018-May-18 00:29N 27°53' W 097°03'0 0.0
2018-May-17 22:52N 27°53' W 097°03'0 0.0
2018-May-17 05:16N 27°53' W 097°03'0 0.0
2018-May-17 02:19N 27°53' W 097°03'0 0.0
2018-May-17 01:53N 27°53' W 097°03'0 0.0
2018-May-17 01:21N 27°53' W 097°03'0 0.0
2018-May-17 01:00N 27°53' W 097°03'0 0.0
2018-May-16 21:16N 27°53' W 097°03'7 0.8
2018-May-16 13:07N 27°59' W 097°05'0 0.0
2018-May-16 13:00N 27°59' W 097°05'0 0.0
2018-May-16 12:04N 27°59' W 097°05'0 0.0
2018-May-16 11:49N 27°59' W 097°05'0 0.0
2018-May-16 11:30N 27°59' W 097°05'0 0.0
2018-May-16 11:00N 27°59' W 097°05'0 0.0
2018-May-16 10:30N 27°59' W 097°05'0 0.0
2018-May-16 10:00N 27°59' W 097°05'1 1.9
2018-May-16 09:27N 27°60' W 097°04'7 1.7
2018-May-16 05:32N 27°53' W 097°03'0 0.0
2018-May-16 05:30N 27°53' W 097°03'  
2018-May-10 06:05N 27°52' W 097°03'0 0.1
2018-May-10 05:59N 27°52' W 097°03'0 0.0
2018-May-09 04:04N 27°53' W 097°03'0 0.0
2018-May-08 09:28N 27°53' W 097°03'0 0.0
2018-May-08 09:01N 27°53' W 097°03'0 0.0
2018-May-08 08:28N 27°53' W 097°03'0 0.0
2018-May-08 07:59N 27°53' W 097°03'0 0.6
2018-May-08 07:26N 27°53' W 097°03'0 0.0
2018-May-08 07:00N 27°53' W 097°03'  

Dump ship's entire track history